Time;durP1;ratioP1;P1;durP2;ratioP2;P2;SDS_P1;SDS_P2;PMS_P1;PMS_P2;Temp;Humidity;BMP_temperature;BMP_pressure;BME280_temperature;BME280_humidity;BME280_pressure;Samples;Min_cycle;Max_cycle;Signal;HPM_P1;HPM_P2
2023/01/30 00:00:34;;;;;;;16.23;12.57;;;2.80;99.90;;;;;;5051052;28;20468;-49
2023/01/30 00:03:00;;;;;;;15.57;12.57;;;;;;;;;;5051002;28;20229;-48
2023/01/30 00:05:26;;;;;;;15.70;12.43;;;2.70;99.90;;;;;;5051175;28;20635;-49
2023/01/30 00:07:51;;;;;;;15.83;13.30;;;3.00;99.90;;;;;;5050830;28;20181;-49
2023/01/30 00:10:17;;;;;;;15.87;12.40;;;;;;;;;;5050864;28;20195;-50
2023/01/30 00:12:43;;;;;;;16.47;12.83;;;;;;;;;;5050956;28;20313;-49
2023/01/30 00:15:09;;;;;;;13.70;12.20;;;;;;;;;;5051043;28;20824;-48
2023/01/30 00:17:35;;;;;;;15.40;12.80;;;2.60;99.90;;;;;;5051127;28;20500;-49
2023/01/30 00:20:01;;;;;;;15.93;12.60;;;2.60;99.90;;;;;;5050916;28;20500;-49
2023/01/30 00:22:26;;;;;;;17.20;13.43;;;2.10;99.90;;;;;;5050724;28;20222;-49
2023/01/30 00:24:52;;;;;;;15.50;12.77;;;;;;;;;;5050588;28;20175;-49
2023/01/30 00:27:18;;;;;;;15.57;13.00;;;;;;;;;;5051119;28;20181;-49
2023/01/30 00:29:44;;;;;;;14.77;12.60;;;2.40;99.90;;;;;;5051032;28;20222;-48
2023/01/30 00:32:09;;;;;;;16.90;13.57;;;2.30;99.90;;;;;;5050705;28;20211;-49
2023/01/30 00:34:35;;;;;;;18.37;13.87;;;2.20;99.90;;;;;;5051219;28;20179;-49
2023/01/30 00:37:00;;;;;;;17.20;13.53;;;2.10;99.90;;;;;;5050777;28;20226;-51
2023/01/30 00:39:26;;;;;;;14.87;13.13;;;2.20;99.90;;;;;;5050799;28;20198;-48
2023/01/30 00:47:20;;;;;;;15.80;12.83;;;1.90;99.90;;;;;;5050879;28;20471;-48
2023/01/30 00:49:46;;;;;;;16.87;13.50;;;;;;;;;;5050536;28;20429;-49
2023/01/30 00:52:12;;;;;;;16.13;13.47;;;2.00;99.90;;;;;;5050529;28;20417;-49
2023/01/30 00:54:37;;;;;;;16.53;13.90;;;2.00;99.90;;;;;;5050697;28;20555;-49
2023/01/30 00:57:03;;;;;;;15.93;13.27;;;1.90;99.90;;;;;;5050406;28;20183;-48
2023/01/30 00:59:28;;;;;;;16.53;13.63;;;1.90;99.90;;;;;;5049897;28;20624;-49
2023/01/30 01:01:54;;;;;;;16.03;13.67;;;1.90;99.90;;;;;;5050423;28;20260;-49
2023/01/30 01:04:20;;;;;;;15.23;12.47;;;1.80;99.90;;;;;;5051893;28;20191;-48
2023/01/30 01:06:45;;;;;;;15.93;13.30;;;1.70;99.90;;;;;;5050615;28;20180;-51
2023/01/30 01:09:11;;;;;;;16.10;13.03;;;1.70;99.90;;;;;;5053451;28;20684;-49
2023/01/30 01:11:36;;;;;;;16.53;13.37;;;1.60;99.90;;;;;;5054303;28;20539;-51
2023/01/30 01:14:04;;;;;;;17.90;13.83;;;1.50;99.90;;;;;;5054358;28;20172;-48
2023/01/30 01:16:32;;;;;;;18.40;14.83;;;1.40;99.90;;;;;;5054197;28;20175;-50
2023/01/30 01:18:58;;;;;;;17.80;13.33;;;1.50;99.90;;;;;;5053597;28;20445;-51
2023/01/30 01:21:24;;;;;;;17.87;14.23;;;1.70;99.90;;;;;;5053794;28;20563;-50
2023/01/30 01:23:52;;;;;;;18.13;13.97;;;1.70;99.90;;;;;;5054191;28;20453;-51
2023/01/30 01:26:18;;;;;;;17.90;14.13;;;1.60;99.90;;;;;;5054049;28;20265;-49
2023/01/30 01:28:43;;;;;;;17.37;14.20;;;2.00;99.90;;;;;;5054034;28;20433;-49
2023/01/30 01:31:10;;;;;;;15.97;12.80;;;1.80;99.90;;;;;;5053930;28;20486;-48
2023/01/30 01:33:36;;;;;;;14.97;12.60;;;;;;;;;;5053889;28;20192;-51
2023/01/30 01:36:02;;;;;;;17.87;14.13;;;;;;;;;;5054050;28;20425;-49
2023/01/30 01:38:28;;;;;;;17.17;13.83;;;1.50;99.90;;;;;;5053730;28;20492;-50
2023/01/30 01:41:05;;;;;;;17.33;14.13;;;1.50;99.90;;;;;;5053843;28;20464;-49
2023/01/30 01:43:58;;;;;;;18.13;14.13;;;1.50;99.90;;;;;;5052362;28;20694;-49
2023/01/30 01:46:47;;;;;;;17.40;13.53;;;1.30;99.90;;;;;;5053697;28;20921;-49
2023/01/30 01:49:24;;;;;;;17.53;13.93;;;1.40;99.90;;;;;;5053493;28;20464;-49
2023/01/30 01:51:56;;;;;;;16.60;12.93;;;;;;;;;;5053549;28;20425;-49
2023/01/30 01:54:32;;;;;;;19.23;15.13;;;1.80;99.90;;;;;;5053448;28;20410;-49
2023/01/30 01:57:00;;;;;;;18.10;13.03;;;1.80;99.90;;;;;;5053533;28;20918;-51
2023/01/30 01:59:31;;;;;;;18.80;14.63;;;1.60;99.90;;;;;;5053147;28;20445;-51
2023/01/30 02:02:02;;;;;;;16.77;13.77;;;1.30;99.90;;;;;;5053371;28;20548;-49
2023/01/30 02:07:17;;;;;;;19.67;13.90;;;1.40;99.90;;;;;;5052618;28;20788;-49
2023/01/30 02:09:43;;;;;;;19.37;14.27;;;1.40;99.90;;;;;;5052586;28;20512;-51
2023/01/30 02:12:11;;;;;;;20.07;15.23;;;1.20;99.90;;;;;;5053243;28;20425;-49
2023/01/30 02:14:38;;;;;;;18.87;14.83;;;1.40;99.90;;;;;;5053252;28;20449;-50
2023/01/30 02:17:03;;;;;;;17.63;14.00;;;1.40;99.90;;;;;;5052997;28;20413;-49
2023/01/30 02:19:41;;;;;;;18.83;14.93;;;1.40;99.90;;;;;;5052902;28;20528;-52
2023/01/30 02:22:55;;;;;;;17.40;14.23;;;1.50;99.90;;;;;;5052635;28;20301;-49
2023/01/30 02:25:40;;;;;;;18.73;14.77;;;1.40;99.90;;;;;;5030698;28;20525;-49
2023/01/30 02:28:22;;;;;;;17.43;13.90;;;1.30;99.90;;;;;;5029482;28;20505;-49
2023/01/30 02:31:17;;;;;;;17.60;14.17;;;1.30;99.90;;;;;;5011052;28;20408;-50
2023/01/30 02:34:16;;;;;;;17.47;13.50;;;1.10;99.90;;;;;;4933182;29;20452;-49
2023/01/30 02:37:14;;;;;;;18.10;13.47;;;1.00;99.90;;;;;;4933022;29;20571;-49
2023/01/30 02:39:58;;;;;;;16.93;13.47;;;0.90;99.90;;;;;;4933417;29;20438;-49
2023/01/30 02:42:43;;;;;;;18.93;14.07;;;0.80;99.90;;;;;;4932639;29;20604;-50
2023/01/30 02:45:34;;;;;;;19.30;14.07;;;0.70;99.90;;;;;;4933216;29;20568;-50
2023/01/30 02:48:03;;;;;;;18.07;13.97;;;0.70;99.90;;;;;;4933042;29;20411;-52
2023/01/30 02:50:35;;;;;;;19.13;14.50;;;0.80;99.90;;;;;;4932802;29;20435;-50
2023/01/30 02:53:03;;;;;;;19.63;14.50;;;0.90;99.90;;;;;;4932874;29;20447;-50
2023/01/30 02:55:28;;;;;;;17.80;13.90;;;0.70;99.90;;;;;;4932972;29;20427;-49
2023/01/30 02:57:54;;;;;;;18.43;14.23;;;0.80;99.90;;;;;;4932840;29;20885;-49
2023/01/30 03:00:50;;;;;;;17.73;14.03;;;0.80;99.90;;;;;;4950310;29;20682;-49
2023/01/30 03:03:37;;;;;;;18.13;14.17;;;0.70;99.90;;;;;;4971054;28;20218;-49
2023/01/30 03:06:32;;;;;;;17.70;13.60;;;0.80;99.90;;;;;;4971085;28;20406;-49
2023/01/30 03:09:24;;;;;;;17.10;13.27;;;0.90;99.90;;;;;;4969156;28;20974;-50
2023/01/30 03:12:13;;;;;;;16.50;12.93;;;1.20;99.90;;;;;;5032275;28;20887;-49
2023/01/30 03:14:51;;;;;;;16.63;13.33;;;1.20;99.90;;;;;;5032254;28;20399;-50
2023/01/30 03:17:19;;;;;;;16.37;12.97;;;1.00;99.90;;;;;;5031972;28;20418;-49
2023/01/30 03:19:45;;;;;;;16.93;12.83;;;0.90;99.90;;;;;;5045242;28;20433;-49
2023/01/30 03:22:10;;;;;;;17.70;13.40;;;0.80;99.90;;;;;;5051403;28;20551;-49
2023/01/30 03:24:36;;;;;;;17.13;12.93;;;0.90;99.90;;;;;;5052055;28;20178;-49
2023/01/30 03:27:07;;;;;;;16.80;13.20;;;0.80;99.90;;;;;;5051682;28;20579;-49
2023/01/30 03:29:33;;;;;;;18.47;13.63;;;0.80;99.90;;;;;;5051819;28;20183;-50
2023/01/30 03:31:59;;;;;;;18.87;13.27;;;0.90;99.90;;;;;;5050896;28;20433;-52
2023/01/30 03:34:24;;;;;;;17.10;13.47;;;0.90;99.90;;;;;;5051688;28;20262;-50
2023/01/30 03:36:50;;;;;;;17.13;13.23;;;0.90;99.90;;;;;;5051693;28;20183;-49
2023/01/30 03:39:15;;;;;;;18.47;14.40;;;0.90;99.90;;;;;;5051095;28;20746;-49
2023/01/30 03:41:41;;;;;;;17.07;13.20;;;0.80;99.90;;;;;;5051296;28;20294;-49
2023/01/30 03:44:07;;;;;;;18.00;14.13;;;0.80;99.90;;;;;;5051508;28;20174;-51
2023/01/30 03:46:32;;;;;;;18.77;14.70;;;0.70;99.90;;;;;;5051428;28;20245;-49
2023/01/30 03:48:58;;;;;;;19.13;14.57;;;0.70;99.90;;;;;;5051154;28;20206;-51
2023/01/30 03:51:23;;;;;;;18.37;14.63;;;0.80;99.90;;;;;;5050257;28;20172;-45
2023/01/30 03:53:49;;;;;;;17.90;13.80;;;0.80;99.90;;;;;;5051306;28;20531;-50
2023/01/30 03:56:14;;;;;;;19.00;13.87;;;0.80;99.90;;;;;;5051377;28;20198;-49
2023/01/30 03:58:40;;;;;;;20.00;14.90;;;0.50;99.90;;;;;;5051055;28;20698;-49
2023/01/30 04:01:05;;;;;;;20.30;14.37;;;0.50;99.90;;;;;;5051174;28;20667;-49
2023/01/30 04:03:33;;;;;;;19.73;14.97;;;0.40;99.90;;;;;;5051118;28;20521;-48
2023/01/30 04:05:58;;;;;;;19.17;14.37;;;0.40;99.90;;;;;;5051116;28;20639;-49
2023/01/30 04:08:24;;;;;;;20.67;14.60;;;0.40;99.90;;;;;;5051070;28;20421;-50
2023/01/30 04:10:50;;;;;;;21.23;15.57;;;0.30;99.90;;;;;;5051243;28;20699;-49
2023/01/30 04:13:15;;;;;;;19.07;14.20;;;0.30;99.90;;;;;;5050966;28;20175;-49
2023/01/30 04:15:41;;;;;;;19.97;15.10;;;0.30;99.90;;;;;;5051077;28;20171;-51
2023/01/30 04:18:06;;;;;;;20.33;15.47;;;0.30;99.90;;;;;;5050993;28;20215;-50
2023/01/30 04:20:32;;;;;;;21.47;16.47;;;0.30;99.90;;;;;;5050943;28;20190;-49
2023/01/30 04:22:58;;;;;;;21.13;15.60;;;0.20;99.90;;;;;;5050617;28;20205;-50
2023/01/30 04:25:23;;;;;;;21.60;16.20;;;0.10;99.90;;;;;;5050930;28;20308;-51
2023/01/30 04:27:49;;;;;;;21.77;16.20;;;0.10;99.90;;;;;;5051092;28;20167;-49
2023/01/30 04:30:15;;;;;;;21.23;16.10;;;0.10;99.90;;;;;;5051082;28;20198;-49
2023/01/30 04:32:41;;;;;;;20.57;15.67;;;0.10;99.90;;;;;;5050692;28;20237;-49
2023/01/30 04:35:06;;;;;;;22.17;16.93;;;0.10;99.90;;;;;;5051164;28;20301;-51
2023/01/30 04:37:32;;;;;;;22.07;16.40;;;0.10;99.90;;;;;;5050996;28;20175;-50
2023/01/30 04:39:58;;;;;;;23.60;16.90;;;0.00;99.90;;;;;;5050954;28;20194;-49
2023/01/30 04:42:23;;;;;;;21.23;16.37;;;0.00;99.90;;;;;;5051094;28;20256;-49
2023/01/30 04:44:49;;;;;;;22.97;15.87;;;0.00;99.90;;;;;;5054954;28;20639;-49
2023/01/30 04:47:15;;;;;;;21.43;16.83;;;0.10;99.90;;;;;;5054771;28;20164;-50
2023/01/30 04:49:40;;;;;;;21.60;16.17;;;0.20;99.90;;;;;;5054588;28;20195;-49
2023/01/30 04:52:06;;;;;;;22.57;16.47;;;0.20;99.90;;;;;;5054809;28;20258;-49
2023/01/30 04:54:31;;;;;;;22.43;16.93;;;0.10;99.90;;;;;;5054673;28;20590;-49
2023/01/30 04:56:57;;;;;;;22.47;16.03;;;;;;;;;;5054672;28;20213;-49
2023/01/30 04:59:23;;;;;;;22.57;16.77;;;;;;;;;;5054498;28;20232;-51
2023/01/30 05:01:49;;;;;;;22.57;16.73;;;;;;;;;;5054342;28;20199;-49
2023/01/30 05:04:15;;;;;;;23.00;16.53;;;-0.20;99.90;;;;;;5054719;28;20409;-49
2023/01/30 05:06:40;;;;;;;22.87;16.40;;;-0.10;99.90;;;;;;5054278;28;20401;-49
2023/01/30 05:09:06;;;;;;;23.47;17.30;;;-0.10;99.90;;;;;;5054351;28;20191;-49
2023/01/30 05:11:32;;;;;;;24.13;17.93;;;;;;;;;;5054246;28;20179;-48
2023/01/30 05:13:58;;;;;;;23.57;17.23;;;;;;;;;;5054733;28;20182;-49
2023/01/30 05:16:25;;;;;;;24.03;17.20;;;-0.30;99.90;;;;;;5054183;28;20409;-49
2023/01/30 05:18:50;;;;;;;25.27;17.63;;;-0.20;99.90;;;;;;5054268;28;20504;-48
2023/01/30 05:21:24;;;;;;;24.13;17.67;;;-0.50;99.90;;;;;;5054072;28;21049;-49
2023/01/30 05:23:51;;;;;;;23.47;16.90;;;-0.30;99.90;;;;;;5054639;28;20619;-48
2023/01/30 05:26:17;;;;;;;21.97;16.77;;;;;;;;;;5052898;28;20444;-49
2023/01/30 05:28:43;;;;;;;24.23;17.87;;;;;;;;;;5053926;28;20472;-49
2023/01/30 05:31:13;;;;;;;23.13;16.80;;;0.00;99.90;;;;;;5053997;28;20182;-51
2023/01/30 05:33:39;;;;;;;22.33;17.50;;;-0.10;99.90;;;;;;5052481;28;20181;-51
2023/01/30 05:36:05;;;;;;;25.27;18.00;;;0.00;99.90;;;;;;5054140;28;20421;-46
2023/01/30 05:38:31;;;;;;;24.40;17.70;;;-0.20;99.90;;;;;;5053767;28;20429;-49
2023/01/30 05:41:01;;;;;;;24.37;17.27;;;-0.10;99.90;;;;;;5053973;28;20451;-51
2023/01/30 05:43:27;;;;;;;24.53;17.50;;;;;;;;;;5053601;28;20201;-50
2023/01/30 05:45:54;;;;;;;23.80;17.43;;;-0.10;99.90;;;;;;5053806;28;20424;-51
2023/01/30 05:48:21;;;;;;;24.70;17.70;;;-0.30;99.90;;;;;;5053686;28;20402;-49
2023/01/30 05:50:47;;;;;;;27.23;19.60;;;;;;;;;;5053741;28;20402;-49
2023/01/30 05:53:13;;;;;;;26.47;18.33;;;;;;;;;;5053054;28;20452;-49
2023/01/30 05:55:38;;;;;;;24.87;17.50;;;-0.50;99.90;;;;;;5053675;28;20485;-49
2023/01/30 05:58:04;;;;;;;25.43;18.23;;;-0.60;99.90;;;;;;5053656;28;20501;-48
2023/01/30 06:00:30;;;;;;;26.50;19.03;;;;;;;;;;5053364;28;20231;-48
2023/01/30 06:02:56;;;;;;;26.47;18.07;;;;;;;;;;5050495;28;20245;-49
2023/01/30 06:05:21;;;;;;;26.53;19.10;;;-0.30;99.90;;;;;;5051404;28;20171;-48
2023/01/30 06:07:47;;;;;;;25.87;18.23;;;-0.20;99.90;;;;;;5053868;28;20175;-48
2023/01/30 06:10:13;;;;;;;25.37;18.83;;;;;;;;;;5053428;28;20222;-49
2023/01/30 06:12:38;;;;;;;25.03;18.07;;;;;;;;;;5053139;28;20178;-51
2023/01/30 06:15:05;;;;;;;25.40;18.70;;;;;;;;;;5053361;28;20171;-49
2023/01/30 06:17:31;;;;;;;27.53;18.77;;;;;;;;;;5049908;28;20534;-51
2023/01/30 06:19:57;;;;;;;26.20;17.50;;;;;;;;;;5051061;28;20456;-47
2023/01/30 06:22:22;;;;;;;26.90;18.20;;;-0.90;99.90;;;;;;5051485;28;20221;-47
2023/01/30 06:24:48;;;;;;;25.53;18.33;;;;;;;;;;5053963;28;20255;-47
2023/01/30 06:27:14;;;;;;;25.73;18.93;;;-0.60;99.90;;;;;;5052943;28;20190;-48
2023/01/30 06:29:40;;;;;;;23.33;17.33;;;;;;;;;;5053547;28;20293;-49
2023/01/30 06:32:06;;;;;;;26.27;17.50;;;;;;;;;;5056148;28;20181;-48
2023/01/30 06:34:32;;;;;;;26.77;17.70;;;;;;;;;;5050679;28;20201;-49
2023/01/30 06:36:57;;;;;;;31.63;19.70;;;-0.30;99.90;;;;;;5052260;28;20262;-47
2023/01/30 06:39:23;;;;;;;27.93;19.23;;;-0.20;99.90;;;;;;5052691;28;20199;-48
2023/01/30 06:41:49;;;;;;;26.23;18.47;;;;;;;;;;5051889;28;20202;-50
2023/01/30 06:44:14;;;;;;;28.93;19.33;;;;;;;;;;5050094;28;20183;-49
2023/01/30 06:46:40;;;;;;;27.23;18.60;;;;;;;;;;5052904;28;20708;-52
2023/01/30 06:49:06;;;;;;;26.47;18.60;;;;;;;;;;5051385;28;20675;-49
2023/01/30 06:51:32;;;;;;;27.43;19.03;;;;;;;;;;5050948;28;20183;-47
2023/01/30 06:53:58;;;;;;;29.27;19.37;;;-0.40;99.90;;;;;;5051320;28;20907;-49
2023/01/30 06:56:24;;;;;;;27.93;19.80;;;;;;;;;;5051256;28;20628;-50
2023/01/30 06:58:50;;;;;;;26.67;18.40;;;;;;;;;;5051528;28;20221;-48
2023/01/30 07:01:17;;;;;;;27.03;18.87;;;;;;;;;;5051161;28;20594;-48
2023/01/30 07:03:43;;;;;;;26.67;18.90;;;;;;;;;;5051086;28;20167;-48
2023/01/30 07:06:09;;;;;;;26.87;19.17;;;0.10;99.90;;;;;;5051160;28;20416;-48
2023/01/30 07:08:34;;;;;;;26.10;19.00;;;-0.40;99.90;;;;;;5052212;28;20199;-46
2023/01/30 07:11:00;;;;;;;27.73;19.67;;;;;;;;;;5052162;28;20179;-48
2023/01/30 07:13:26;;;;;;;28.17;19.70;;;;;;;;;;5052061;28;20233;-50
2023/01/30 07:15:52;;;;;;;30.13;19.00;;;;;;;;;;5052038;28;20185;-50
2023/01/30 07:18:18;;;;;;;27.67;20.30;;;-0.10;99.90;;;;;;5051325;28;20480;-48
2023/01/30 07:20:48;;;;;;;27.43;18.90;;;-0.10;99.90;;;;;;5051914;28;20188;-49
2023/01/30 07:23:14;;;;;;;26.87;18.47;;;-0.30;99.90;;;;;;5051719;28;20636;-48
2023/01/30 07:25:39;;;;;;;29.13;20.07;;;-0.30;99.90;;;;;;5052113;28;20416;-49
2023/01/30 07:28:05;;;;;;;27.27;18.70;;;;;;;;;;5051883;28;20183;-50
2023/01/30 07:30:34;;;;;;;24.67;18.07;;;-0.10;99.90;;;;;;5051950;28;20301;-48
2023/01/30 07:33:01;;;;;;;27.57;19.07;;;-0.30;99.90;;;;;;5047479;28;20266;-49
2023/01/30 07:35:32;;;;;;;28.37;18.73;;;-0.40;99.90;;;;;;5045975;28;20465;-51
2023/01/30 07:37:58;;;;;;;27.57;20.10;;;;;;;;;;5048521;28;20434;-50
2023/01/30 07:40:24;;;;;;;26.50;19.07;;;-0.50;99.90;;;;;;5042203;28;20437;-49
2023/01/30 07:43:03;;;;;;;29.07;19.87;;;-0.20;99.90;;;;;;5047113;28;20803;-50
2023/01/30 07:45:35;;;;;;;29.30;19.90;;;-0.10;99.90;;;;;;5045758;28;20425;-47
2023/01/30 07:48:01;;;;;;;28.57;19.73;;;-0.20;99.90;;;;;;5049816;28;20421;-48
2023/01/30 07:50:27;;;;;;;26.73;19.20;;;0.00;99.90;;;;;;5051296;28;20429;-48
2023/01/30 07:52:53;;;;;;;25.03;18.43;;;;;;;;;;5042403;28;20186;-48
2023/01/30 07:55:19;;;;;;;26.17;18.80;;;;;;;;;;5051362;28;20179;-52
2023/01/30 07:57:45;;;;;;;25.13;17.43;;;;;;;;;;5050628;28;20340;-47
2023/01/30 08:00:11;;;;;;;24.00;17.70;;;-0.10;99.90;;;;;;5047220;28;20211;-50
2023/01/30 08:02:37;;;;;;;25.00;17.47;;;0.30;99.90;;;;;;5051003;28;20752;-49
2023/01/30 08:05:03;;;;;;;26.80;18.30;;;0.10;99.90;;;;;;5050679;28;20410;-50
2023/01/30 08:07:29;;;;;;;23.17;17.10;;;;;;;;;;5050353;28;20492;-48
2023/01/30 08:09:55;;;;;;;27.00;18.67;;;0.80;99.90;;;;;;5048334;28;20520;-48
2023/01/30 08:12:20;;;;;;;22.90;16.90;;;0.50;99.90;;;;;;5050616;28;20182;-49
2023/01/30 08:14:46;;;;;;;20.40;16.17;;;0.80;99.90;;;;;;5050464;28;20185;-50
2023/01/30 08:17:11;;;;;;;22.23;16.17;;;1.00;99.90;;;;;;5050794;28;20250;-50
2023/01/30 08:19:37;;;;;;;21.27;16.00;;;0.70;99.90;;;;;;5050455;28;20663;-49
2023/01/30 08:22:02;;;;;;;23.07;16.73;;;0.60;99.90;;;;;;5050231;28;20687;-50
2023/01/30 08:24:28;;;;;;;21.00;16.10;;;0.90;99.90;;;;;;5050928;28;20174;-49
2023/01/30 08:26:53;;;;;;;21.47;16.20;;;0.90;99.90;;;;;;5050684;28;20222;-49
2023/01/30 08:29:19;;;;;;;21.07;15.83;;;;;;;;;;5048310;28;20610;-50
2023/01/30 08:31:45;;;;;;;22.00;16.30;;;;;;;;;;5050544;28;20190;-47
2023/01/30 08:34:11;;;;;;;24.80;18.03;;;;;;;;;;5050976;28;20634;-51
2023/01/30 08:36:37;;;;;;;22.40;16.40;;;;;;;;;;5050416;28;20702;-52
2023/01/30 08:39:03;;;;;;;22.30;16.93;;;;;;;;;;5050803;28;20291;-52
2023/01/30 08:41:29;;;;;;;22.67;16.27;;;0.70;99.90;;;;;;5050934;28;20680;-47
2023/01/30 08:43:54;;;;;;;22.77;16.83;;;1.00;99.90;;;;;;5050276;28;20187;-50
2023/01/30 08:46:20;;;;;;;23.13;16.03;;;0.90;99.90;;;;;;5050724;28;20175;-47
2023/01/30 08:48:46;;;;;;;22.73;16.80;;;;;;;;;;5049601;28;20203;-48
2023/01/30 08:51:12;;;;;;;22.40;16.47;;;0.70;99.90;;;;;;5050856;28;20463;-48
2023/01/30 08:53:38;;;;;;;20.67;15.50;;;0.60;99.90;;;;;;5050753;28;20508;-50
2023/01/30 08:56:05;;;;;;;21.90;15.87;;;0.70;99.90;;;;;;5033014;28;20548;-50
2023/01/30 08:58:31;;;;;;;20.27;14.80;;;;;;;;;;5050986;28;20206;-47
2023/01/30 09:00:57;;;;;;;23.17;16.07;;;;;;;;;;5049271;28;20479;-45
2023/01/30 09:03:23;;;;;;;22.13;15.60;;;;;;;;;;5050659;28;20406;-47
2023/01/30 09:05:57;;;;;;;20.87;15.10;;;0.70;99.90;;;;;;5050874;28;20272;-50
2023/01/30 09:08:23;;;;;;;22.57;15.13;;;0.80;99.90;;;;;;5049743;28;21247;-44
2023/01/30 09:10:49;;;;;;;20.73;15.40;;;0.90;99.90;;;;;;5050809;28;20978;-48
2023/01/30 09:13:16;;;;;;;20.33;14.50;;;1.40;99.90;;;;;;5050377;28;20663;-45
2023/01/30 09:15:42;;;;;;;20.03;15.07;;;1.10;99.90;;;;;;5050777;28;20229;-48
2023/01/30 09:18:08;;;;;;;19.07;14.47;;;;;;;;;;5050336;28;20456;-48
2023/01/30 09:20:33;;;;;;;20.23;14.63;;;1.30;99.90;;;;;;5050254;28;20778;-46
2023/01/30 09:23:00;;;;;;;18.87;14.13;;;1.20;99.90;;;;;;5050479;28;20287;-45
2023/01/30 09:25:26;;;;;;;20.03;14.37;;;;;;;;;;5050297;28;20229;-44
2023/01/30 09:27:52;;;;;;;18.80;13.40;;;;;;;;;;5050445;28;20408;-46
2023/01/30 09:30:18;;;;;;;20.13;14.27;;;1.50;99.90;;;;;;5052359;28;20437;-44
2023/01/30 09:32:43;;;;;;;20.17;14.80;;;1.60;99.90;;;;;;5053971;28;20207;-46
2023/01/30 09:35:09;;;;;;;20.03;14.00;;;2.10;99.90;;;;;;5054174;28;20452;-44
2023/01/30 09:37:35;;;;;;;18.13;13.37;;;1.80;99.90;;;;;;5053819;28;20309;-45
2023/01/30 09:40:00;;;;;;;19.13;13.27;;;1.90;99.90;;;;;;5053757;28;20286;-49
2023/01/30 09:43:04;;;;;;;19.77;14.77;;;1.90;99.90;;;;;;5053361;28;20640;-46
2023/01/30 09:45:49;;;;;;;18.33;13.73;;;2.40;99.90;;;;;;5050892;28;20825;-45
2023/01/30 09:48:23;;;;;;;18.17;13.50;;;2.40;99.90;;;;;;5052701;28;20821;-51
2023/01/30 09:51:09;;;;;;;18.47;13.67;;;2.60;99.90;;;;;;5054008;28;20647;-51
2023/01/30 09:53:55;;;;;;;18.97;13.63;;;2.70;99.90;;;;;;5048044;28;20175;-47
2023/01/30 09:56:21;;;;;;;16.40;13.60;;;3.10;99.90;;;;;;5011426;28;20204;-50
2023/01/30 09:59:03;;;;;;;18.50;14.10;;;2.90;99.90;;;;;;5011642;28;20853;-46
2023/01/30 10:01:51;;;;;;;18.07;13.63;;;3.60;99.90;;;;;;5011046;28;20208;-45
2023/01/30 10:04:34;;;;;;;25.67;19.57;;;3.30;99.90;;;;;;5011486;28;20223;-47
2023/01/30 10:07:19;;;;;;;19.50;13.80;;;3.40;99.90;;;;;;5010919;28;20184;-45
2023/01/30 10:10:13;;;;;;;17.73;13.13;;;3.50;99.90;;;;;;5011041;28;20212;-45
2023/01/30 10:12:48;;;;;;;19.60;15.10;;;3.50;99.90;;;;;;5010492;28;20701;-46
2023/01/30 10:15:50;;;;;;;18.63;14.43;;;3.60;99.90;;;;;;5011484;28;20215;-45
2023/01/30 10:18:37;;;;;;;18.63;14.93;;;3.90;99.90;;;;;;5010212;28;20312;-43
2023/01/30 10:21:02;;;;;;;20.83;14.50;;;3.70;99.90;;;;;;5010931;28;20635;-49
2023/01/30 10:23:46;;;;;;;16.97;13.03;;;3.80;99.90;;;;;;5010790;28;20172;-44
2023/01/30 10:26:15;;;;;;;17.27;13.53;;;4.00;99.90;;;;;;5011019;28;20268;-44
2023/01/30 10:29:13;;;;;;;19.70;14.33;;;3.80;99.90;;;;;;5011012;28;20189;-47
2023/01/30 10:31:49;;;;;;;16.60;12.87;;;4.00;99.90;;;;;;4972197;28;20184;-46
2023/01/30 10:34:30;;;;;;;17.97;14.93;;;4.00;99.90;;;;;;5029089;28;20704;-50
2023/01/30 10:36:56;;;;;;;16.97;13.80;;;;;;;;;;5032468;28;20175;-48
2023/01/30 10:40:02;;;;;;;18.27;14.50;;;3.70;99.90;;;;;;5032915;28;20202;-50
2023/01/30 10:42:38;;;;;;;19.47;13.80;;;3.90;99.90;;;;;;5032203;28;20215;-48
2023/01/30 10:45:19;;;;;;;16.00;12.70;;;4.10;99.90;;;;;;5032901;28;20175;-45
2023/01/30 10:48:16;;;;;;;16.77;13.13;;;4.10;99.90;;;;;;5032652;28;20237;-46
2023/01/30 10:50:52;;;;;;;15.10;12.23;;;4.30;99.90;;;;;;5032799;28;20200;-47
2023/01/30 10:53:23;;;;;;;20.07;14.33;;;4.30;99.90;;;;;;5032266;28;20174;-46
2023/01/30 10:56:07;;;;;;;23.27;16.73;;;4.40;99.90;;;;;;5032837;28;20564;-46
2023/01/30 10:58:50;;;;;;;22.50;14.73;;;4.50;99.90;;;;;;5051538;28;20198;-48
2023/01/30 11:01:34;;;;;;;20.73;16.57;;;4.50;99.90;;;;;;5052334;28;20191;-46
2023/01/30 11:04:12;;;;;;;27.50;20.80;;;4.70;99.90;;;;;;5052473;28;20178;-44
2023/01/30 11:06:39;;;;;;;23.73;16.90;;;4.70;99.90;;;;;;5052185;28;20224;-47
2023/01/30 11:09:04;;;;;;;21.57;16.53;;;4.70;99.90;;;;;;5052394;28;20191;-45
2023/01/30 11:11:32;;;;;;;18.40;15.07;;;5.00;99.90;;;;;;5038857;28;20644;-48
2023/01/30 11:14:11;;;;;;;14.50;11.93;;;4.90;99.90;;;;;;5051212;28;20175;-45
2023/01/30 11:17:14;;;;;;;15.63;12.73;;;4.90;99.90;;;;;;5043580;28;20186;-48
2023/01/30 11:19:40;;;;;;;15.13;12.03;;;5.10;99.90;;;;;;5009910;28;20208;-48
2023/01/30 11:22:06;;;;;;;15.07;11.40;;;2.80;99.90;;;;;;5009689;28;20242;-47
2023/01/30 11:24:37;;;;;;;14.20;11.73;;;5.00;99.90;;;;;;5026310;23;20188;-47
2023/01/30 11:27:29;;;;;;;15.33;10.97;;;5.00;99.90;;;;;;5017954;28;20226;-49
2023/01/30 11:30:16;;;;;;;16.57;12.30;;;5.10;99.90;;;;;;5028251;28;20222;-52
2023/01/30 11:32:43;;;;;;;14.63;11.23;;;5.10;99.90;;;;;;5023667;28;20176;-48
2023/01/30 11:35:09;;;;;;;16.10;12.67;;;5.20;99.90;;;;;;5029708;28;20259;-50
2023/01/30 11:37:38;;;;;;;15.80;11.90;;;5.20;99.90;;;;;;5029045;28;20187;-51
2023/01/30 11:40:25;;;;;;;18.53;12.60;;;5.30;99.90;;;;;;5019178;28;20190;-52
2023/01/30 11:43:07;;;;;;;16.23;12.40;;;5.30;99.90;;;;;;5012765;28;20208;-51
2023/01/30 11:45:42;;;;;;;15.80;12.50;;;5.20;99.90;;;;;;5028439;28;20198;-53
2023/01/30 11:48:18;;;;;;;15.47;11.63;;;5.10;99.90;;;;;;5022940;28;20176;-49
2023/01/30 11:50:47;;;;;;;14.67;11.67;;;4.90;99.90;;;;;;5031457;28;20176;-52
2023/01/30 11:53:42;;;;;;;13.70;10.87;;;4.70;99.90;;;;;;5030411;28;20183;-50
2023/01/30 11:56:38;;;;;;;14.83;11.53;;;4.80;99.90;;;;;;5022892;28;20274;-52
2023/01/30 11:59:15;;;;;;;14.90;12.07;;;4.90;99.90;;;;;;4980097;28;20193;-50
2023/01/30 12:01:40;;;;;;;18.47;10.53;;;4.80;99.90;;;;;;4980688;28;20209;-51
2023/01/30 12:04:10;;;;;;;11.63;9.20;;;4.60;99.90;;;;;;4970695;28;20744;-49
2023/01/30 12:06:38;;;;;;;11.50;9.00;;;4.30;99.90;;;;;;4970197;28;20203;-49
2023/01/30 12:09:04;;;;;;;10.27;8.13;;;3.80;99.90;;;;;;4969742;28;20675;-50
2023/01/30 12:11:36;;;;;;;12.90;9.33;;;3.40;99.90;;;;;;4978546;28;20194;-49
2023/01/30 12:14:33;;;;;;;11.73;8.70;;;3.30;99.90;;;;;;4987976;28;20204;-49
2023/01/30 12:17:33;;;;;;;12.63;8.57;;;-0.40;99.90;;;;;;4988931;28;20727;-52
2023/01/30 12:20:11;;;;;;;11.97;9.10;;;3.00;99.90;;;;;;4950415;29;20194;-50
2023/01/30 12:22:44;;;;;;;11.07;8.43;;;3.00;99.90;;;;;;4950476;29;20221;-52
2023/01/30 12:25:21;;;;;;;11.67;8.10;;;3.00;99.90;;;;;;4949983;29;20778;-50
2023/01/30 12:27:55;;;;;;;13.17;8.30;;;2.90;99.90;;;;;;4950888;29;20178;-51
2023/01/30 12:30:36;;;;;;;12.03;9.10;;;2.80;99.90;;;;;;4950696;29;20181;-52
2023/01/30 12:33:05;;;;;;;13.70;9.07;;;2.80;99.90;;;;;;4950722;29;20174;-48
2023/01/30 12:35:43;;;;;;;14.00;8.90;;;2.70;99.90;;;;;;4951647;28;20218;-50
2023/01/30 12:38:24;;;;;;;13.17;9.50;;;2.80;99.90;;;;;;4969566;28;20197;-51
2023/01/30 12:40:55;;;;;;;11.90;8.63;;;2.90;99.90;;;;;;4969980;28;20173;-49
2023/01/30 12:43:35;;;;;;;12.93;9.17;;;0.80;99.90;;;;;;4969446;28;20189;-49
2023/01/30 12:46:25;;;;;;;11.73;8.63;;;3.00;99.90;;;;;;4969720;28;20722;-50
2023/01/30 12:48:50;;;;;;;11.63;9.33;;;3.00;99.90;;;;;;4969549;28;20181;-52
2023/01/30 12:51:18;;;;;;;13.67;8.90;;;3.50;99.90;;;;;;4969585;28;20548;-52
2023/01/30 12:54:05;;;;;;;11.83;8.90;;;2.90;99.90;;;;;;4969241;28;20177;-53
2023/01/30 12:56:50;;;;;;;12.03;8.90;;;2.80;99.90;;;;;;5003938;28;20282;-51
2023/01/30 12:59:53;;;;;;;11.63;9.03;;;2.80;99.90;;;;;;5008019;28;20175;-49
2023/01/30 13:02:28;;;;;;;12.33;8.97;;;2.80;99.90;;;;;;5010888;28;20291;-53
2023/01/30 13:05:24;;;;;;;12.27;8.73;;;2.70;99.90;;;;;;5012819;28;20192;-52
2023/01/30 13:08:10;;;;;;;11.27;9.03;;;2.60;99.90;;;;;;5013508;28;20195;-48
2023/01/30 13:10:57;;;;;;;10.70;8.27;;;2.60;99.90;;;;;;5024722;28;20179;-51
2023/01/30 13:13:43;;;;;;;11.70;8.77;;;2.60;99.90;;;;;;5030331;28;20532;-51
2023/01/30 13:16:35;;;;;;;11.33;8.97;;;2.60;99.90;;;;;;5029085;28;20249;-53
2023/01/30 13:19:20;;;;;;;12.63;9.13;;;2.40;99.90;;;;;;5025676;28;20168;-49
2023/01/30 13:22:00;;;;;;;11.43;8.50;;;2.50;99.90;;;;;;5025656;28;20211;-51
2023/01/30 13:24:34;;;;;;;10.77;8.67;;;2.30;99.90;;;;;;5014222;28;20164;-49